Time;durP1;ratioP1;P1;durP2;ratioP2;P2;SDS_P1;SDS_P2;PMS_P1;PMS_P2;Temp;Humidity;BMP_temperature;BMP_pressure;BME280_temperature;BME280_humidity;BME280_pressure;Samples;Min_cycle;Max_cycle;Signal;HPM_P1;HPM_P2
2022/07/10 00:01:54;;;;;;;0.75;0.40;;;16.60;96.50;;;;;;6192019;28;20278;-67
2022/07/10 00:04:59;;;;;;;0.60;0.60;;;16.60;96.60;;;;;;6180575;28;20440;-67
2022/07/10 00:08:05;;;;;;;0.50;0.50;;;16.60;96.80;;;;;;6166908;28;20277;-67
2022/07/10 00:11:13;;;;;;;0.43;0.40;;;16.50;97.00;;;;;;6167819;28;20302;-67
2022/07/10 00:14:20;;;;;;;0.60;0.60;;;16.50;97.30;;;;;;6167515;29;20278;-67
2022/07/10 00:17:25;;;;;;;2.10;0.60;;;16.50;97.80;;;;;;6167318;29;20282;-67
2022/07/10 00:20:32;;;;;;;0.60;0.60;;;16.40;97.50;;;;;;6167817;28;20295;-67
2022/07/10 00:23:37;;;;;;;2.75;0.70;;;16.40;98.40;;;;;;6167683;29;20274;-67
2022/07/10 00:26:43;;;;;;;1.27;0.50;;;16.40;98.90;;;;;;6167717;28;20270;-67
2022/07/10 00:29:49;;;;;;;0.40;0.40;;;16.40;97.80;;;;;;6167669;28;20274;-67
2022/07/10 00:32:55;;;;;;;0.68;0.68;;;16.40;98.00;;;;;;6166823;29;20565;-68
2022/07/10 00:36:00;;;;;;;1.08;0.50;;;16.30;97.90;;;;;;6167332;29;20274;-67
2022/07/10 00:39:06;;;;;;;0.38;0.38;;;16.30;98.00;;;;;;6167278;29;20294;-68
2022/07/10 00:42:16;;;;;;;0.50;0.50;;;16.20;98.90;;;;;;6167319;29;20541;-68
2022/07/10 00:45:21;;;;;;;0.60;0.60;;;16.10;98.70;;;;;;6167150;29;20270;-68
2022/07/10 00:48:26;;;;;;;0.50;0.50;;;16.10;98.80;;;;;;6167206;29;20278;-68
2022/07/10 00:51:33;;;;;;;0.40;0.40;;;16.10;98.40;;;;;;6167021;29;20287;-68
2022/07/10 00:54:40;;;;;;;0.50;0.50;;;16.10;98.70;;;;;;6166235;28;20270;-68
2022/07/10 00:57:47;;;;;;;0.40;0.40;;;16.10;99.10;;;;;;6166309;29;20270;-67
2022/07/10 01:00:53;;;;;;;0.60;0.60;;;15.90;98.80;;;;;;6166704;29;20353;-68
2022/07/10 01:03:58;;;;;;;0.52;0.52;;;15.90;98.50;;;;;;6165967;29;20336;-68
2022/07/10 01:07:04;;;;;;;0.50;0.50;;;15.90;98.60;;;;;;6166642;28;20278;-68
2022/07/10 01:10:11;;;;;;;0.60;0.50;;;15.80;98.80;;;;;;6167450;28;20278;-68
2022/07/10 01:13:19;;;;;;;0.40;0.40;;;15.80;99.40;;;;;;6190274;28;20290;-68
2022/07/10 01:16:25;;;;;;;0.40;0.40;;;15.80;99.90;;;;;;6189956;28;20289;-68
2022/07/10 01:19:30;;;;;;;0.80;0.80;;;15.80;99.60;;;;;;6189751;28;20294;-67
2022/07/10 01:22:37;;;;;;;0.50;0.50;;;15.70;99.60;;;;;;6189421;28;20333;-67
2022/07/10 01:25:43;;;;;;;2.75;0.50;;;15.70;99.50;;;;;;6189642;28;20273;-68
2022/07/10 01:28:50;;;;;;;0.50;0.50;;;15.70;99.90;;;;;;6189976;28;20278;-67
2022/07/10 01:31:56;;;;;;;0.60;0.60;;;15.70;99.90;;;;;;6189460;28;20273;-67
2022/07/10 01:35:01;;;;;;;0.50;0.50;;;15.60;99.90;;;;;;6189557;28;20269;-67
2022/07/10 01:38:08;;;;;;;2.17;0.50;;;15.60;99.90;;;;;;6189850;28;20278;-67
2022/07/10 01:41:14;;;;;;;0.85;0.50;;;15.50;99.90;;;;;;6189710;28;20273;-67
2022/07/10 01:44:20;;;;;;;0.40;0.40;;;15.50;99.90;;;;;;6189486;28;20270;-67
2022/07/10 01:47:27;;;;;;;0.50;0.50;;;15.50;99.90;;;;;;6189719;28;20277;-67
2022/07/10 01:50:33;;;;;;;5.32;0.50;;;15.40;99.90;;;;;;6189559;28;20277;-68
2022/07/10 01:53:40;;;;;;;0.43;0.43;;;15.50;99.90;;;;;;6189440;28;20270;-67
2022/07/10 01:56:45;;;;;;;0.32;0.32;;;15.40;99.90;;;;;;6189225;28;20455;-67
2022/07/10 01:59:50;;;;;;;0.35;0.35;;;15.50;99.90;;;;;;6189267;28;20305;-66
2022/07/10 02:06:18;;;;;;;0.45;0.45;;;15.50;99.90;;;;;;6168067;28;20270;-66
2022/07/10 02:09:25;;;;;;;2.65;0.40;;;15.40;99.90;;;;;;6164794;29;20282;-66
2022/07/10 02:12:30;;;;;;;0.40;0.40;;;15.40;99.90;;;;;;6165045;28;20302;-67
2022/07/10 02:15:36;;;;;;;0.75;0.45;;;15.40;99.90;;;;;;6165172;29;20274;-66
2022/07/10 02:18:41;;;;;;;0.30;0.30;;;15.40;99.90;;;;;;6164776;29;20274;-66
2022/07/10 02:21:47;;;;;;;0.50;0.35;;;15.50;99.90;;;;;;6164559;29;20278;-66
2022/07/10 02:24:54;;;;;;;0.20;0.20;;;15.50;99.90;;;;;;6164804;28;20274;-67
2022/07/10 02:27:59;;;;;;;0.30;0.30;;;15.50;99.90;;;;;;6164736;29;20404;-67
2022/07/10 02:31:04;;;;;;;0.95;0.40;;;15.50;99.90;;;;;;6164514;29;20479;-67
2022/07/10 02:34:11;;;;;;;0.50;0.50;;;15.40;99.90;;;;;;6164958;29;20271;-67
2022/07/10 02:37:16;;;;;;;0.40;0.40;;;15.40;99.90;;;;;;6164789;29;20275;-67
2022/07/10 02:40:23;;;;;;;1.95;0.60;;;15.40;99.90;;;;;;6164651;29;20294;-67
2022/07/10 02:43:28;;;;;;;1.65;0.50;;;15.40;99.90;;;;;;6164276;29;20469;-66
2022/07/10 02:46:33;;;;;;;0.40;0.40;;;15.40;99.90;;;;;;6164030;29;20274;-66
2022/07/10 02:49:38;;;;;;;0.43;0.43;;;15.30;99.90;;;;;;6164475;29;20278;-66
2022/07/10 02:52:44;;;;;;;0.50;0.50;;;15.30;99.90;;;;;;6164607;29;20274;-66
2022/07/10 02:55:50;;;;;;;1.58;0.50;;;15.20;99.90;;;;;;6164097;28;20270;-66
2022/07/10 02:58:55;;;;;;;0.75;0.52;;;15.10;99.90;;;;;;6163996;29;20274;-67
2022/07/10 03:02:01;;;;;;;0.45;0.45;;;15.10;99.90;;;;;;6164430;28;20294;-66
2022/07/10 03:05:08;;;;;;;0.60;0.50;;;15.20;99.90;;;;;;6164064;29;20270;-66
2022/07/10 03:08:15;;;;;;;0.60;0.60;;;15.20;99.90;;;;;;6163715;29;20279;-67
2022/07/10 03:11:22;;;;;;;0.30;0.30;;;15.20;99.90;;;;;;6173822;28;20301;-67
2022/07/10 03:14:27;;;;;;;0.50;0.50;;;15.20;99.90;;;;;;6188016;28;20278;-66
2022/07/10 03:17:33;;;;;;;0.40;0.40;;;15.20;99.90;;;;;;6191078;28;20541;-67
2022/07/10 03:20:38;;;;;;;0.40;0.40;;;15.10;99.90;;;;;;6192399;28;20305;-67
2022/07/10 03:23:43;;;;;;;1.88;0.47;;;15.10;99.90;;;;;;6192882;28;20269;-66
2022/07/10 03:26:49;;;;;;;0.47;0.45;;;15.10;99.90;;;;;;6192931;28;20537;-66
2022/07/10 03:29:54;;;;;;;0.40;0.40;;;15.10;99.90;;;;;;6192662;28;20273;-66
2022/07/10 03:33:00;;;;;;;0.47;0.47;;;15.00;99.90;;;;;;6191662;28;20274;-66
2022/07/10 03:36:06;;;;;;;1.38;0.50;;;15.00;99.90;;;;;;6192106;28;20273;-66
2022/07/10 03:39:11;;;;;;;0.50;0.50;;;15.00;99.90;;;;;;6192353;28;20274;-67
2022/07/10 03:42:18;;;;;;;0.45;0.45;;;15.00;99.90;;;;;;6192488;28;20298;-66
2022/07/10 03:45:23;;;;;;;0.28;0.28;;;14.80;99.90;;;;;;6192327;28;20273;-67
2022/07/10 03:48:29;;;;;;;0.40;0.40;;;14.80;99.90;;;;;;6191851;28;20274;-67
2022/07/10 03:51:34;;;;;;;5.35;5.03;;;14.90;99.90;;;;;;6192184;28;20278;-66
2022/07/10 03:54:39;;;;;;;1.70;1.63;;;14.80;99.90;;;;;;6192057;28;20580;-67
2022/07/10 03:57:56;;;;;;;0.90;0.90;;;14.80;99.90;;;;;;6192059;28;20274;-67
2022/07/10 04:01:01;;;;;;;0.60;0.60;;;14.90;99.90;;;;;;6192047;28;20313;-67
2022/07/10 04:04:06;;;;;;;0.80;0.80;;;14.70;99.90;;;;;;6188419;28;20266;-67
2022/07/10 04:07:12;;;;;;;0.70;0.70;;;14.70;99.90;;;;;;6168239;28;20274;-67
2022/07/10 04:10:18;;;;;;;0.70;0.70;;;14.70;99.90;;;;;;6167908;29;20270;-67
2022/07/10 04:13:25;;;;;;;1.75;0.52;;;14.80;99.90;;;;;;6167894;29;20274;-67
2022/07/10 04:16:31;;;;;;;1.48;0.60;;;14.80;99.90;;;;;;6167651;29;20278;-67
2022/07/10 04:19:36;;;;;;;0.50;0.50;;;14.90;99.90;;;;;;6167664;29;20274;-66
2022/07/10 04:22:42;;;;;;;0.40;0.40;;;14.90;99.90;;;;;;6167226;29;20370;-66
2022/07/10 04:25:47;;;;;;;0.65;0.40;;;14.80;99.90;;;;;;6167507;29;20279;-66
2022/07/10 04:28:54;;;;;;;0.30;0.30;;;15.00;99.90;;;;;;6165802;28;20275;-66
2022/07/10 04:31:59;;;;;;;0.47;0.47;;;15.00;99.90;;;;;;6167209;28;20283;-66
2022/07/10 04:35:06;;;;;;;1.58;0.88;;;15.00;99.90;;;;;;6167067;29;20274;-66
2022/07/10 04:38:14;;;;;;;0.50;0.50;;;15.00;99.90;;;;;;6167533;28;20280;-67
2022/07/10 04:41:20;;;;;;;0.32;0.32;;;15.10;99.90;;;;;;6167398;28;20294;-66
2022/07/10 04:44:26;;;;;;;0.50;0.50;;;15.10;99.90;;;;;;6166535;28;20285;-66
2022/07/10 04:47:32;;;;;;;0.30;0.30;;;15.20;99.90;;;;;;6165811;28;20274;-66
2022/07/10 04:50:37;;;;;;;0.32;0.32;;;15.20;99.90;;;;;;6166979;28;20276;-66
2022/07/10 04:53:42;;;;;;;0.40;0.40;;;15.10;99.90;;;;;;6166611;29;20554;-66
2022/07/10 04:56:47;;;;;;;0.60;0.60;;;15.20;99.90;;;;;;6165265;29;20274;-66
2022/07/10 04:59:54;;;;;;;0.40;0.40;;;15.30;99.90;;;;;;6166501;29;20274;-66
2022/07/10 05:02:59;;;;;;;0.35;0.35;;;15.30;99.90;;;;;;6166829;28;20601;-67
2022/07/10 05:06:05;;;;;;;0.30;0.30;;;15.50;99.90;;;;;;6166862;29;20558;-66
2022/07/10 05:09:11;;;;;;;1.48;0.40;;;15.60;99.90;;;;;;6166143;28;20275;-66
2022/07/10 05:12:16;;;;;;;1.80;0.30;;;15.60;99.90;;;;;;6183553;28;20487;-67
2022/07/10 05:15:23;;;;;;;0.45;0.38;;;15.50;99.90;;;;;;6190397;28;20273;-66
2022/07/10 05:18:28;;;;;;;1.20;0.40;;;15.50;99.90;;;;;;6190097;28;20278;-67
2022/07/10 05:21:33;;;;;;;1.52;0.40;;;15.60;99.90;;;;;;6190037;28;20294;-66
2022/07/10 05:24:39;;;;;;;0.50;0.50;;;15.60;99.90;;;;;;6189935;28;20273;-67
2022/07/10 05:27:44;;;;;;;0.43;0.43;;;15.70;99.90;;;;;;6190039;28;20278;-66
2022/07/10 05:30:51;;;;;;;2.55;0.40;;;15.90;99.90;;;;;;6190129;28;20278;-67
2022/07/10 05:33:57;;;;;;;0.47;0.47;;;16.00;99.90;;;;;;6189925;28;20560;-66
2022/07/10 05:37:03;;;;;;;0.50;0.50;;;16.30;99.40;;;;;;6189785;28;20273;-67
2022/07/10 05:40:10;;;;;;;0.30;0.30;;;16.60;99.00;;;;;;6189476;28;20273;-66
2022/07/10 05:43:16;;;;;;;1.13;0.40;;;16.70;98.70;;;;;;6189481;28;20293;-66
2022/07/10 05:46:22;;;;;;;0.30;0.30;;;16.80;98.80;;;;;;6189643;28;20274;-67
2022/07/10 05:49:27;;;;;;;0.40;0.40;;;16.80;98.30;;;;;;6189561;28;20273;-67
2022/07/10 05:52:33;;;;;;;0.38;0.38;;;16.90;97.90;;;;;;6189200;28;20278;-67
2022/07/10 05:55:38;;;;;;;2.20;0.60;;;16.90;98.80;;;;;;6189397;28;20273;-67
2022/07/10 05:58:44;;;;;;;0.50;0.50;;;16.90;98.80;;;;;;6189393;28;20278;-67
2022/07/10 06:01:50;;;;;;;0.40;0.40;;;16.60;98.50;;;;;;6188865;28;20285;-67
2022/07/10 06:04:56;;;;;;;0.60;0.50;;;16.90;98.90;;;;;;6179063;28;20267;-67
2022/07/10 06:08:01;;;;;;;0.40;0.40;;;17.00;98.70;;;;;;6165639;28;20274;-67
2022/07/10 06:11:09;;;;;;;0.47;0.47;;;16.80;98.00;;;;;;6164991;28;20307;-67
2022/07/10 06:14:14;;;;;;;1.00;0.50;;;16.40;98.50;;;;;;6165465;28;20303;-67
2022/07/10 06:17:21;;;;;;;1.08;0.55;;;16.40;98.60;;;;;;6164092;28;20320;-67
2022/07/10 06:20:26;;;;;;;0.43;0.43;;;16.50;98.70;;;;;;6165044;29;20278;-67
2022/07/10 06:23:32;;;;;;;0.40;0.40;;;16.50;98.60;;;;;;6164980;29;20298;-67
2022/07/10 06:26:37;;;;;;;0.30;0.30;;;16.50;98.80;;;;;;6164858;28;20462;-67
2022/07/10 06:29:42;;;;;;;0.60;0.60;;;16.40;98.30;;;;;;6164847;29;20278;-67
2022/07/10 06:32:48;;;;;;;0.43;0.43;;;16.40;98.40;;;;;;6164735;29;20278;-67
2022/07/10 06:35:53;;;;;;;0.43;0.43;;;16.40;98.20;;;;;;6164728;29;20562;-67
2022/07/10 06:38:59;;;;;;;0.50;0.50;;;16.30;98.70;;;;;;6164498;28;20471;-67
2022/07/10 06:42:05;;;;;;;0.60;0.60;;;16.40;99.00;;;;;;6164434;29;20274;-66
2022/07/10 06:45:17;;;;;;;1.75;0.70;;;16.50;99.20;;;;;;6164682;29;20279;-66
2022/07/10 06:48:24;;;;;;;0.65;0.50;;;16.40;98.80;;;;;;6164183;29;20274;-67
2022/07/10 06:51:31;;;;;;;0.50;0.50;;;16.40;99.10;;;;;;6163873;28;20276;-67
2022/07/10 06:54:36;;;;;;;0.68;0.68;;;16.50;99.10;;;;;;6164532;29;20273;-66
2022/07/10 06:57:42;;;;;;;0.80;0.60;;;16.70;99.30;;;;;;6163924;29;20274;-66
2022/07/10 07:00:47;;;;;;;0.50;0.50;;;16.90;98.60;;;;;;6164476;28;20578;-66
2022/07/10 07:03:53;;;;;;;0.60;0.60;;;17.00;99.40;;;;;;6163727;29;20299;-67
2022/07/10 07:06:58;;;;;;;0.60;0.60;;;17.20;99.90;;;;;;6164071;28;20278;-67
2022/07/10 07:10:06;;;;;;;0.43;0.43;;;17.40;99.90;;;;;;6163581;28;20274;-67
2022/07/10 07:13:12;;;;;;;0.50;0.50;;;17.50;99.60;;;;;;6186175;28;20608;-67
2022/07/10 07:16:20;;;;;;;0.47;0.47;;;17.30;97.50;;;;;;6188018;28;20273;-67
2022/07/10 07:19:31;;;;;;;0.40;0.40;;;17.30;98.60;;;;;;6187953;28;20269;-67
2022/07/10 07:26:01;;;;;;;0.52;0.52;;;17.50;98.10;;;;;;6188018;28;20396;-66
2022/07/10 07:29:06;;;;;;;0.50;0.50;;;17.40;97.80;;;;;;6187835;28;20289;-66
2022/07/10 07:32:14;;;;;;;0.40;0.40;;;17.40;97.90;;;;;;6187676;28;20277;-66
2022/07/10 07:35:21;;;;;;;1.25;0.57;;;17.70;98.50;;;;;;6187408;28;20443;-66
2022/07/10 07:38:26;;;;;;;0.60;0.60;;;17.90;98.20;;;;;;6187227;28;20278;-66
2022/07/10 07:41:31;;;;;;;0.90;0.50;;;18.20;97.70;;;;;;6187647;28;20274;-66
2022/07/10 07:44:37;;;;;;;0.50;0.50;;;18.30;97.90;;;;;;6187178;28;20293;-66
2022/07/10 07:47:47;;;;;;;0.40;0.40;;;18.30;97.40;;;;;;6187291;28;20267;-66
2022/07/10 07:50:53;;;;;;;0.35;0.35;;;18.30;97.60;;;;;;6187669;28;20557;-67
2022/07/10 07:53:58;;;;;;;0.50;0.50;;;18.00;97.20;;;;;;6187637;28;20282;-67
2022/07/10 07:57:04;;;;;;;0.40;0.40;;;18.00;97.00;;;;;;6187521;28;20279;-66
2022/07/10 08:00:13;;;;;;;0.40;0.40;;;18.00;97.00;;;;;;6187238;28;20273;-66
2022/07/10 08:03:19;;;;;;;0.50;0.50;;;17.90;97.10;;;;;;6189898;28;20439;-66
2022/07/10 08:06:26;;;;;;;0.43;0.43;;;17.90;97.20;;;;;;6170310;28;20267;-66
2022/07/10 08:09:31;;;;;;;2.30;0.45;;;18.00;95.90;;;;;;6168025;29;20454;-66
2022/07/10 08:12:36;;;;;;;0.40;0.40;;;18.20;95.80;;;;;;6168174;29;20298;-67
2022/07/10 08:15:41;;;;;;;0.50;0.50;;;18.00;94.80;;;;;;6167614;29;20279;-66
2022/07/10 08:18:46;;;;;;;1.75;0.30;;;18.10;95.20;;;;;;6167990;28;20430;-66
2022/07/10 08:21:53;;;;;;;0.43;0.43;;;18.20;95.20;;;;;;6167716;29;20274;-66
2022/07/10 08:24:59;;;;;;;0.40;0.40;;;18.00;95.90;;;;;;6167254;29;20294;-66
2022/07/10 08:28:05;;;;;;;0.40;0.40;;;18.00;96.00;;;;;;6167697;28;20549;-66
2022/07/10 08:31:11;;;;;;;0.43;0.43;;;18.10;96.60;;;;;;6167471;29;20278;-66
2022/07/10 08:34:20;;;;;;;0.40;0.40;;;18.10;96.90;;;;;;6167613;29;20334;-66
2022/07/10 08:37:26;;;;;;;0.30;0.30;;;18.00;95.10;;;;;;6167182;28;20270;-67
2022/07/10 08:40:36;;;;;;;0.60;0.35;;;18.10;96.00;;;;;;6166841;29;20275;-66
2022/07/10 08:43:42;;;;;;;0.40;0.40;;;18.20;96.50;;;;;;6166949;29;20274;-66
2022/07/10 08:46:47;;;;;;;0.57;0.50;;;18.10;95.80;;;;;;6167322;28;20459;-66
2022/07/10 08:49:52;;;;;;;0.47;0.47;;;18.30;96.40;;;;;;6166230;29;20492;-66
2022/07/10 08:53:05;;;;;;;0.43;0.43;;;18.40;95.20;;;;;;6166123;28;20374;-67
2022/07/10 08:56:13;;;;;;;0.40;0.40;;;18.20;94.70;;;;;;6166718;29;20558;-66
2022/07/10 08:59:19;;;;;;;0.43;0.43;;;18.20;95.20;;;;;;6166921;29;20270;-66
2022/07/10 09:02:24;;;;;;;0.50;0.50;;;18.00;95.90;;;;;;6166951;28;20290;-66
2022/07/10 09:05:30;;;;;;;0.47;0.47;;;17.90;95.60;;;;;;6166918;28;20291;-66
2022/07/10 09:08:37;;;;;;;0.88;0.80;;;17.80;96.10;;;;;;6166119;29;20472;-66
2022/07/10 09:11:43;;;;;;;1.20;0.60;;;17.60;95.90;;;;;;6176395;28;20302;-67
2022/07/10 09:14:48;;;;;;;2.63;0.93;;;17.60;96.40;;;;;;6189148;28;20282;-67
2022/07/10 09:17:56;;;;;;;0.60;0.60;;;17.60;96.00;;;;;;6189763;28;20279;-67
2022/07/10 09:21:08;;;;;;;2.33;2.33;;;17.60;95.80;;;;;;6190248;28;20330;-67
2022/07/10 09:24:17;;;;;;;8.13;7.53;;;17.50;96.20;;;;;;6190143;28;20270;-67
2022/07/10 09:27:22;;;;;;;2.45;2.45;;;17.60;95.80;;;;;;6173190;28;20273;-67
2022/07/10 09:30:35;;;;;;;5.93;5.63;;;17.60;96.10;;;;;;6189758;28;20278;-67
2022/07/10 09:33:41;;;;;;;1.70;1.70;;;17.70;96.00;;;;;;6190055;28;20274;-67
2022/07/10 09:36:46;;;;;;;1.02;1.02;;;17.70;96.00;;;;;;6189536;28;20343;-67
2022/07/10 09:39:58;;;;;;;0.95;0.95;;;17.80;96.30;;;;;;6189597;28;20277;-67
2022/07/10 09:43:03;;;;;;;0.77;0.77;;;17.90;95.20;;;;;;6189536;28;20273;-67
2022/07/10 09:46:10;;;;;;;1.00;1.00;;;18.00;95.30;;;;;;6189507;28;20293;-67
2022/07/10 09:49:15;;;;;;;0.70;0.70;;;18.00;93.60;;;;;;6189072;28;20471;-67
2022/07/10 09:52:21;;;;;;;0.60;0.60;;;17.90;94.10;;;;;;6189206;28;20278;-67
2022/07/10 09:55:30;;;;;;;1.13;1.13;;;18.10;94.40;;;;;;6188901;28;20277;-68
2022/07/10 09:58:36;;;;;;;0.60;0.60;;;18.20;94.40;;;;;;6189360;28;20273;-67
2022/07/10 10:01:46;;;;;;;0.45;0.45;;;18.40;93.70;;;;;;6188886;28;20470;-67
2022/07/10 10:04:52;;;;;;;1.13;0.60;;;18.40;92.80;;;;;;6179875;28;20266;-67
2022/07/10 10:07:58;;;;;;;1.63;1.10;;;18.50;93.60;;;;;;6164800;29;20570;-67
2022/07/10 10:11:05;;;;;;;1.50;1.42;;;18.60;92.80;;;;;;6165211;28;20302;-67
2022/07/10 10:14:17;;;;;;;0.65;0.65;;;18.70;93.20;;;;;;6165089;29;20275;-67
2022/07/10 10:17:23;;;;;;;1.80;1.77;;;18.80;92.60;;;;;;6164577;29;20274;-67
2022/07/10 10:20:37;;;;;;;0.80;0.80;;;18.70;92.60;;;;;;6164650;29;20274;-67
2022/07/10 10:23:43;;;;;;;0.70;0.70;;;18.70;92.60;;;;;;6165044;29;20270;-67
2022/07/10 10:26:49;;;;;;;0.60;0.60;;;18.80;93.90;;;;;;6164750;28;20298;-67
2022/07/10 10:29:55;;;;;;;0.90;0.90;;;18.40;93.70;;;;;;6165028;28;20407;-66
2022/07/10 10:33:00;;;;;;;0.70;0.70;;;18.40;95.20;;;;;;6164804;29;20531;-68
2022/07/10 10:36:06;;;;;;;0.93;0.93;;;18.40;94.60;;;;;;6164471;29;20279;-67
2022/07/10 10:39:13;;;;;;;1.10;1.10;;;18.20;93.80;;;;;;6164856;28;20278;-67
2022/07/10 10:42:36;;;;;;;2.65;2.65;;;18.10;94.20;;;;;;6164016;29;20274;-67
2022/07/10 10:45:42;;;;;;;1.17;1.17;;;18.10;93.30;;;;;;6164563;29;20274;-67
2022/07/10 10:49:06;;;;;;;0.70;0.70;;;18.10;93.20;;;;;;6164455;29;20278;-67
2022/07/10 10:52:15;;;;;;;0.82;0.82;;;18.10;93.30;;;;;;6164374;29;20290;-67
2022/07/10 10:55:20;;;;;;;1.65;1.27;;;18.10;93.30;;;;;;6164665;28;20274;-67
2022/07/10 10:58:29;;;;;;;0.90;0.90;;;18.30;93.40;;;;;;6164511;29;20278;-67
2022/07/10 11:01:34;;;;;;;3.00;0.70;;;18.10;93.60;;;;;;6164112;28;20457;-67
2022/07/10 11:04:40;;;;;;;0.70;0.70;;;18.10;94.80;;;;;;6163860;29;20311;-67
2022/07/10 11:07:53;;;;;;;0.68;0.68;;;18.30;94.10;;;;;;6164147;29;20604;-67
2022/07/10 11:10:59;;;;;;;0.50;0.50;;;18.40;94.00;;;;;;6166686;28;20349;-67
2022/07/10 11:14:07;;;;;;;0.50;0.50;;;18.40;94.10;;;;;;6188018;28;20274;-67
2022/07/10 11:17:12;;;;;;;4.57;4.38;;;18.40;94.10;;;;;;6187826;28;20450;-67
2022/07/10 11:20:18;;;;;;;1.77;1.67;;;18.50;93.80;;;;;;6187892;28;20273;-67
2022/07/10 11:23:50;;;;;;;1.10;1.10;;;18.50;94.20;;;;;;6188195;28;20573;-67
2022/07/10 11:27:17;;;;;;;1.25;0.90;;;18.30;94.20;;;;;;6187698;28;20293;-67
2022/07/10 11:30:23;;;;;;;0.70;0.70;;;18.60;94.60;;;;;;6187639;28;20461;-67
2022/07/10 11:33:29;;;;;;;1.00;1.00;;;18.80;94.30;;;;;;6170999;28;20278;-67
2022/07/10 11:36:34;;;;;;;1.17;0.63;;;18.80;93.90;;;;;;6187957;28;20277;-67
2022/07/10 11:39:39;;;;;;;2.35;1.50;;;18.80;93.10;;;;;;6192076;28;20278;-67
2022/07/10 11:42:50;;;;;;;1.48;1.30;;;18.90;92.90;;;;;;6175490;28;20273;-67
2022/07/10 11:46:00;;;;;;;0.60;0.60;;;19.00;93.20;;;;;;6175711;28;20453;-66
2022/07/10 11:49:08;;;;;;;1.90;1.00;;;18.90;92.40;;;;;;6192592;28;20289;-67
2022/07/10 11:52:14;;;;;;;1.10;1.08;;;19.00;92.40;;;;;;6192114;28;20561;-67
2022/07/10 11:55:21;;;;;;;0.70;0.70;;;18.90;92.80;;;;;;6191853;28;20274;-67
2022/07/10 11:58:26;;;;;;;0.70;0.70;;;18.80;93.30;;;;;;6191750;28;20274;-68
2022/07/10 12:01:42;;;;;;;0.60;0.60;;;18.80;93.30;;;;;;6192257;28;20273;-67
2022/07/10 12:04:48;;;;;;;0.50;0.50;;;18.80;93.10;;;;;;6182831;28;20272;-67
2022/07/10 12:07:54;;;;;;;4.03;1.08;;;18.90;93.00;;;;;;6168031;29;20593;-68
2022/07/10 12:10:59;;;;;;;0.70;0.70;;;18.80;92.60;;;;;;6168510;28;20330;-68
2022/07/10 12:14:14;;;;;;;1.33;0.85;;;18.80;93.00;;;;;;6168263;29;20569;-68
2022/07/10 12:17:20;;;;;;;0.60;0.60;;;18.80;92.40;;;;;;6168076;29;20278;-68
2022/07/10 12:20:26;;;;;;;0.90;0.60;;;18.70;92.30;;;;;;6167830;28;20275;-67
2022/07/10 12:23:32;;;;;;;1.00;0.70;;;19.00;92.50;;;;;;6168055;28;20278;-67
2022/07/10 12:26:41;;;;;;;0.70;0.70;;;18.80;91.40;;;;;;6167583;28;20286;-67
2022/07/10 12:30:01;;;;;;;0.60;0.60;;;19.00;91.80;;;;;;6167693;29;20275;-67
2022/07/10 12:33:16;;;;;;;0.80;0.80;;;19.10;91.80;;;;;;6167723;29;20279;-67
2022/07/10 12:36:21;;;;;;;0.90;0.90;;;19.30;92.50;;;;;;6167119;29;20274;-67
2022/07/10 12:39:27;;;;;;;0.65;0.65;;;19.30;91.30;;;;;;6167097;28;20463;-67
2022/07/10 12:42:32;;;;;;;0.57;0.57;;;19.40;91.70;;;;;;6166969;29;20279;-67
2022/07/10 12:45:38;;;;;;;1.67;1.20;;;19.40;92.00;;;;;;6166515;29;20275;-67
2022/07/10 12:49:01;;;;;;;0.82;0.82;;;19.40;92.80;;;;;;6164529;28;20558;-67
2022/07/10 12:52:06;;;;;;;0.80;0.80;;;19.30;92.00;;;;;;6166951;29;20275;-67
2022/07/10 12:55:21;;;;;;;1.85;0.80;;;19.20;92.60;;;;;;6166747;29;20290;-67
2022/07/10 12:58:26;;;;;;;0.80;0.80;;;19.20;92.90;;;;;;6167036;29;20278;-68
2022/07/10 13:01:42;;;;;;;0.95;0.90;;;19.30;92.40;;;;;;6166995;29;20278;-67
2022/07/10 13:04:55;;;;;;;0.90;0.90;;;19.20;91.90;;;;;;6167034;29;20266;-67
2022/07/10 13:08:13;;;;;;;1.00;1.00;;;19.20;91.90;;;;;;6166803;28;20573;-67
2022/07/10 13:11:18;;;;;;;0.93;0.93;;;19.20;91.90;;;;;;6171336;28;20480;-68
2022/07/10 13:14:24;;;;;;;1.95;1.23;;;19.10;91.70;;;;;;6190537;28;20458;-67
2022/07/10 13:17:29;;;;;;;0.95;0.85;;;19.10;92.80;;;;;;6190592;28;20289;-68
2022/07/10 13:20:36;;;;;;;0.95;0.95;;;19.30;93.10;;;;;;6190476;28;20290;-68
2022/07/10 13:23:42;;;;;;;0.70;0.70;;;19.30;93.20;;;;;;6190361;28;20281;-68
2022/07/10 13:26:47;;;;;;;4.25;0.60;;;18.90;93.10;;;;;;6190271;28;20278;-68
2022/07/10 13:29:52;;;;;;;0.80;0.80;;;18.90;93.20;;;;;;6190203;28;20294;-68
2022/07/10 13:32:57;;;;;;;0.70;0.70;;;19.10;93.70;;;;;;6189486;28;20274;-68
2022/07/10 13:36:05;;;;;;;0.60;0.60;;;19.10;93.30;;;;;;6189399;28;20277;-67
2022/07/10 13:39:10;;;;;;;0.70;0.70;;;19.20;93.20;;;;;;6189569;28;20274;-67
2022/07/10 13:42:15;;;;;;;1.00;1.00;;;19.30;93.60;;;;;;6189789;28;20269;-67
2022/07/10 13:45:20;;;;;;;0.70;0.70;;;19.40;93.50;;;;;;6189884;28;20274;-68
2022/07/10 13:48:26;;;;;;;0.70;0.70;;;19.60;93.60;;;;;;6189497;28;20290;-67
2022/07/10 13:51:33;;;;;;;0.75;0.75;;;19.80;93.60;;;;;;6189427;28;20273;-68
2022/07/10 13:54:38;;;;;;;0.93;0.75;;;19.80;92.60;;;;;;6189459;28;20278;-68
2022/07/10 13:57:43;;;;;;;0.93;0.90;;;19.70;92.70;;;;;;6189118;28;20278;-68
2022/07/10 14:00:49;;;;;;;0.95;0.65;;;19.70;92.40;;;;;;6188764;28;20277;-68
2022/07/10 14:03:54;;;;;;;0.65;0.65;;;19.50;91.90;;;;;;6187398;28;20313;-68
2022/07/10 14:07:01;;;;;;;0.60;0.60;;;19.50;92.00;;;;;;6165737;28;20274;-68
2022/07/10 14:10:08;;;;;;;0.60;0.60;;;19.70;92.30;;;;;;6165357;29;20295;-68
2022/07/10 14:13:15;;;;;;;1.27;1.10;;;20.90;90.00;;;;;;6165588;28;20302;-68
2022/07/10 14:16:20;;;;;;;0.70;0.70;;;21.10;87.10;;;;;;6165281;29;20279;-68
2022/07/10 14:19:25;;;;;;;0.98;0.98;;;20.70;86.10;;;;;;6165257;29;20282;-68
2022/07/10 14:22:32;;;;;;;0.57;0.57;;;20.40;86.90;;;;;;6164896;29;20270;-68
2022/07/10 14:25:37;;;;;;;0.73;0.73;;;20.10;90.70;;;;;;6165018;29;20274;-68
2022/07/10 14:28:42;;;;;;;0.70;0.70;;;20.40;90.50;;;;;;6164667;29;20572;-68
2022/07/10 14:31:49;;;;;;;0.60;0.60;;;20.30;91.10;;;;;;6164994;29;20278;-68
2022/07/10 14:34:54;;;;;;;0.60;0.60;;;20.10;92.40;;;;;;6165120;29;20294;-68
2022/07/10 14:38:00;;;;;;;0.80;0.80;;;19.60;93.80;;;;;;6164539;28;20270;-68
2022/07/10 14:41:06;;;;;;;0.65;0.65;;;19.40;94.40;;;;;;6164675;29;20437;-67
2022/07/10 14:44:11;;;;;;;2.22;0.80;;;19.10;95.40;;;;;;6164642;29;20275;-67
2022/07/10 14:47:17;;;;;;;0.50;0.50;;;19.20;96.70;;;;;;6164820;28;20274;-68
2022/07/10 14:50:23;;;;;;;2.30;1.00;;;19.20;97.20;;;;;;6164406;29;20296;-68
2022/07/10 14:53:34;;;;;;;12.80;11.30;;;19.30;96.60;;;;;;6164508;29;20275;-67
2022/07/10 14:56:40;;;;;;;2.15;2.15;;;19.30;95.90;;;;;;6164401;29;20271;-68
2022/07/10 14:59:45;;;;;;;0.88;0.88;;;19.30;94.20;;;;;;6164608;28;20282;-68
2022/07/10 15:02:50;;;;;;;1.75;0.80;;;19.30;94.70;;;;;;6164083;28;20275;-68
2022/07/10 15:05:56;;;;;;;0.68;0.68;;;19.30;94.50;;;;;;6164400;29;20266;-68
2022/07/10 15:09:03;;;;;;;0.85;0.85;;;19.10;95.40;;;;;;6164236;28;20282;-68
2022/07/10 15:12:10;;;;;;;0.80;0.80;;;18.90;97.00;;;;;;6175283;28;20301;-68
2022/07/10 15:15:16;;;;;;;0.90;0.90;;;18.70;96.90;;;;;;6187689;28;20274;-68
2022/07/10 15:18:21;;;;;;;1.10;1.10;;;18.60;97.40;;;;;;6187621;28;20269;-68
2022/07/10 15:21:28;;;;;;;0.90;0.90;;;18.60;97.90;;;;;;6187754;28;20282;-67
2022/07/10 15:24:34;;;;;;;1.02;0.80;;;18.70;95.80;;;;;;6188029;28;20273;-68
2022/07/10 15:27:42;;;;;;;2.53;0.70;;;18.90;96.90;;;;;;6187557;28;20278;-67
2022/07/10 15:30:47;;;;;;;0.70;0.70;;;19.00;95.60;;;;;;6187554;28;20294;-68
2022/07/10 15:33:52;;;;;;;2.08;1.13;;;19.20;96.40;;;;;;6187718;28;20278;-68
2022/07/10 15:36:57;;;;;;;0.90;0.90;;;19.20;94.70;;;;;;6188070;28;20274;-68
2022/07/10 15:40:05;;;;;;;0.90;0.90;;;19.30;94.70;;;;;;6188111;28;20277;-68
2022/07/10 15:43:13;;;;;;;1.02;1.00;;;19.20;95.20;;;;;;6187311;28;20273;-68
2022/07/10 15:46:18;;;;;;;0.88;0.88;;;19.20;95.70;;;;;;6187636;28;20274;-68
2022/07/10 15:49:23;;;;;;;0.93;0.93;;;19.10;95.50;;;;;;6188104;28;20277;-68
2022/07/10 15:52:29;;;;;;;0.82;0.82;;;19.00;95.70;;;;;;6187701;28;20278;-67
2022/07/10 15:55:35;;;;;;;0.90;0.90;;;18.80;96.00;;;;;;6187900;28;20274;-68
2022/07/10 15:58:42;;;;;;;0.80;0.80;;;18.70;96.60;;;;;;6187530;28;20293;-68
2022/07/10 16:01:47;;;;;;;0.73;0.73;;;18.60;96.60;;;;;;6187857;28;20282;-67
2022/07/10 16:04:52;;;;;;;0.88;0.88;;;18.60;97.30;;;;;;6177951;28;20270;-68
2022/07/10 16:07:57;;;;;;;0.70;0.70;;;18.60;97.60;;;;;;6163725;28;20278;-68
2022/07/10 16:11:04;;;;;;;0.80;0.80;;;18.50;98.10;;;;;;6163898;28;20306;-67
2022/07/10 16:14:11;;;;;;;0.80;0.80;;;18.50;98.80;;;;;;6163501;29;20275;-68
2022/07/10 16:17:16;;;;;;;1.30;1.00;;;18.40;99.00;;;;;;6162365;29;20274;-68
2022/07/10 16:20:22;;;;;;;0.90;0.90;;;18.20;99.30;;;;;;6163709;29;20274;-68